Time;durP1;ratioP1;P1;durP2;ratioP2;P2;SDS_P1;SDS_P2;PMS_P1;PMS_P2;Temp;Humidity;BMP_temperature;BMP_pressure;BME280_temperature;BME280_humidity;BME280_pressure;Samples;Min_cycle;Max_cycle;Signal;HPM_P1;HPM_P2
2020/12/12 00:01:48;;;;;;;33.90;15.13;;;;;;;-6.34;53.34;101329.75;5032261;28;20049;-63
2020/12/12 00:04:13;;;;;;;36.92;15.70;;;;;;;-6.29;53.27;101322.88;5032364;28;20029;-61
2020/12/12 00:06:39;;;;;;;36.33;16.33;;;;;;;-6.38;53.04;101301.91;5032430;28;20037;-63
2020/12/12 00:09:04;;;;;;;35.83;15.25;;;;;;;-6.33;53.30;101323.69;5032376;28;20132;-54
2020/12/12 00:11:30;;;;;;;37.13;16.70;;;;;;;-6.39;53.30;101314.09;5031711;28;20456;-63
2020/12/12 00:13:55;;;;;;;35.58;16.02;;;;;;;-6.35;53.21;101317.59;5031594;28;20420;-64
2020/12/12 00:16:20;;;;;;;41.28;18.00;;;;;;;-6.42;53.37;101318.38;5032349;28;20033;-62
2020/12/12 00:18:46;;;;;;;36.72;16.13;;;;;;;-6.53;53.29;101303.44;5032036;28;20500;-61
2020/12/12 00:21:12;;;;;;;35.25;15.68;;;;;;;-6.53;53.55;101293.03;5032287;28;20044;-63
2020/12/12 00:23:38;;;;;;;35.72;16.80;;;;;;;-6.43;53.05;101290.56;5031226;28;20073;-62
2020/12/12 00:26:04;;;;;;;37.38;16.45;;;;;;;-6.28;53.09;101318.56;5014689;28;20108;-59
2020/12/12 00:28:31;;;;;;;35.00;16.95;;;;;;;-6.28;52.77;101319.41;5032365;28;20037;-62
2020/12/12 00:30:58;;;;;;;40.75;16.90;;;;;;;-6.24;52.99;101326.44;5031636;28;20507;-61
2020/12/12 00:33:23;;;;;;;37.42;16.30;;;;;;;-6.28;52.89;101288.13;5031352;28;20033;-59
2020/12/12 00:35:49;;;;;;;35.38;16.48;;;;;;;-6.13;52.71;101317.88;5030933;28;20512;-62
2020/12/12 00:38:14;;;;;;;41.25;17.75;;;;;;;-6.05;52.73;101308.41;5031845;28;20168;-60
2020/12/12 00:40:40;;;;;;;33.17;16.48;;;;;;;-6.01;52.11;101289.34;5032879;28;20031;-60
2020/12/12 00:43:05;;;;;;;43.40;17.67;;;;;;;-5.84;52.36;101310.34;5034021;28;20524;-64
2020/12/12 00:45:31;;;;;;;34.97;16.75;;;;;;;-5.76;52.06;101315.66;5034051;28;20037;-61
2020/12/12 00:47:56;;;;;;;37.90;16.98;;;;;;;-5.64;52.27;101310.56;5031386;28;20045;-62
2020/12/12 00:50:23;;;;;;;38.15;17.13;;;;;;;-5.54;52.07;101305.44;5031763;28;20029;-63
2020/12/12 00:52:49;;;;;;;40.30;16.60;;;;;;;-5.56;51.60;101289.75;5031616;28;20049;-62
2020/12/12 00:55:15;;;;;;;40.58;17.27;;;;;;;-5.40;51.60;101302.97;5030582;28;20033;-62
2020/12/12 00:57:40;;;;;;;43.40;16.25;;;;;;;-5.43;51.72;101288.16;5031390;28;20053;-63
2020/12/12 01:00:06;;;;;;;41.28;17.73;;;;;;;-5.35;51.84;101298.66;5031512;28;20049;-61
2020/12/12 01:02:31;;;;;;;39.20;17.92;;;;;;;-5.45;51.76;101310.75;5031359;28;20060;-61
2020/12/12 01:04:57;;;;;;;33.85;14.88;;;;;;;-5.43;52.09;101297.69;5012607;28;20033;-59
2020/12/12 01:07:22;;;;;;;42.50;17.90;;;;;;;-5.63;51.72;101270.56;5013702;28;20033;-60
2020/12/12 01:09:48;;;;;;;38.33;17.98;;;;;;;-5.62;52.33;101287.09;5031532;28;20030;-62
2020/12/12 01:12:16;;;;;;;49.55;19.33;;;;;;;-5.56;51.84;101296.69;5030306;28;20037;-61
2020/12/12 01:14:42;;;;;;;45.92;18.95;;;;;;;-5.70;52.33;101292.25;5031159;28;20045;-62
2020/12/12 01:17:07;;;;;;;38.95;17.92;;;;;;;-5.83;52.44;101285.13;5031129;28;20364;-60
2020/12/12 01:19:42;;;;;;;49.08;20.70;;;;;;;-5.97;52.85;101298.91;5031560;28;20037;-61
2020/12/12 01:22:08;;;;;;;47.78;18.05;;;;;;;-6.08;53.21;101295.31;5030596;28;20041;-61
2020/12/12 01:24:33;;;;;;;44.47;18.63;;;;;;;-6.12;53.33;101306.56;5030084;28;20041;-61
2020/12/12 01:26:59;;;;;;;44.55;17.95;;;;;;;-6.18;53.19;101296.09;5030955;28;20029;-61
2020/12/12 01:29:24;;;;;;;42.75;18.75;;;;;;;-6.36;53.68;101295.88;5031147;28;20037;-61
2020/12/12 01:31:50;;;;;;;47.47;19.85;;;;;;;-6.22;53.24;101303.88;5030372;28;20067;-61
2020/12/12 01:34:18;;;;;;;41.63;17.40;;;;;;;-6.21;53.59;101308.22;5030320;28;20127;-62
2020/12/12 01:36:46;;;;;;;48.08;19.58;;;;;;;-6.34;53.65;101308.91;5030240;28;20109;-61
2020/12/12 01:39:12;;;;;;;45.60;17.75;;;;;;;-6.32;53.59;101307.19;5031124;28;20045;-61
2020/12/12 01:41:37;;;;;;;47.47;17.90;;;;;;;-6.48;53.74;101295.69;5030192;28;20041;-60
2020/12/12 01:44:03;;;;;;;46.85;19.60;;;;;;;-6.52;53.97;101294.78;5029639;28;20142;-60
2020/12/12 01:46:32;;;;;;;52.05;19.83;;;;;;;-6.52;54.55;101319.97;5030654;28;20044;-61
2020/12/12 01:48:58;;;;;;;37.38;14.52;;;;;;;-6.92;54.37;101242.16;5030397;28;20051;-61
2020/12/12 01:51:26;;;;;;;39.97;15.68;;;;;;;-6.49;54.11;101312.19;5030562;28;20037;-61
2020/12/12 01:53:56;;;;;;;56.50;20.83;;;;;;;-7.18;54.22;101220.94;5030144;28;20128;-61
2020/12/12 01:56:22;;;;;;;46.47;19.40;;;;;;;-6.71;54.27;101309.28;5030393;28;20034;-62
2020/12/12 01:58:47;;;;;;;43.90;19.25;;;;;;;-6.74;54.78;101321.41;5030217;28;20053;-61
2020/12/12 02:01:13;;;;;;;48.03;19.63;;;;;;;-7.16;54.77;101240.03;5012683;28;20049;-61
2020/12/12 02:03:43;;;;;;;52.45;21.38;;;;;;;-6.81;54.51;101308.28;5029677;28;20463;-61
2020/12/12 02:06:13;;;;;;;46.33;19.30;;;;;;;-6.86;55.08;101319.50;5030351;28;20451;-61
2020/12/12 02:08:39;;;;;;;47.13;19.00;;;;;;;-6.98;54.90;101291.53;5029944;28;20041;-62
2020/12/12 02:11:07;;;;;;;44.38;19.27;;;;;;;-6.89;54.92;101319.41;5030741;28;20033;-62
2020/12/12 02:13:33;;;;;;;44.10;19.02;;;;;;;-6.90;55.12;101304.66;5030633;28;20091;-62
2020/12/12 02:15:59;;;;;;;41.78;18.38;;;;;;;-6.88;55.34;101310.75;5030518;28;20516;-61
2020/12/12 02:18:24;;;;;;;38.08;17.45;;;;;;;-6.90;55.14;101302.94;5030289;28;20037;-62
2020/12/12 02:20:55;;;;;;;49.08;19.27;;;;;;;-6.79;54.76;101310.91;5029664;28;20033;-62
2020/12/12 02:23:21;;;;;;;45.70;18.48;;;;;;;-6.74;55.01;101313.59;5029840;28;20058;-62
2020/12/12 02:25:47;;;;;;;49.28;19.98;;;;;;;-6.81;54.37;101297.84;5029275;28;20116;-63
2020/12/12 02:28:15;;;;;;;43.80;18.90;;;;;;;-6.92;55.05;101296.84;5029902;28;20044;-54
2020/12/12 02:30:41;;;;;;;46.00;18.05;;;;;;;-7.17;54.83;101252.19;5029084;28;20044;-55
2020/12/12 02:33:06;;;;;;;43.10;19.13;;;;;;;-7.02;54.73;101280.19;5029617;28;20037;-54
2020/12/12 02:35:32;;;;;;;46.58;18.35;;;;;;;-6.99;54.69;101289.75;5028779;28;20080;-58
2020/12/12 02:37:57;;;;;;;50.92;19.95;;;;;;;-7.68;54.70;101166.41;5029586;28;20037;-61
2020/12/12 02:40:23;;;;;;;47.50;19.45;;;;;;;-6.87;54.82;101295.16;5028044;28;20377;-59
2020/12/12 02:42:48;;;;;;;41.83;18.38;;;;;;;-6.89;55.21;101302.09;5029467;28;20030;-62
2020/12/12 02:45:14;;;;;;;52.92;20.13;;;;;;;-6.85;55.17;101298.66;5029657;28;20442;-60
2020/12/12 02:47:40;;;;;;;47.08;18.75;;;;;;;-7.43;55.29;101200.63;5029957;28;20040;-60
2020/12/12 02:50:11;;;;;;;42.42;18.33;;;;;;;-6.87;55.34;101310.78;5011196;28;20164;-62
2020/12/12 02:52:38;;;;;;;53.05;21.35;;;;;;;-6.89;55.26;101303.78;5030123;28;20041;-59
2020/12/12 02:55:05;;;;;;;50.33;19.88;;;;;;;-6.90;54.88;101299.44;5030763;28;20900;-58
2020/12/12 02:57:33;;;;;;;44.30;18.52;;;;;;;-6.94;55.24;101293.34;5029856;28;20061;-57
2020/12/12 02:59:58;;;;;;;47.38;18.42;;;;;;;-6.92;54.88;101308.09;5012177;28;20045;-56
2020/12/12 03:02:24;;;;;;;42.55;18.00;;;;;;;-6.84;54.78;101292.59;5029181;28;20382;-56
2020/12/12 03:04:49;;;;;;;46.30;18.90;;;;;;;-6.93;54.90;101292.47;5029645;28;20116;-54
2020/12/12 03:07:15;;;;;;;45.47;18.50;;;;;;;-6.93;55.12;101295.09;5029230;28;20378;-55
2020/12/12 03:09:40;;;;;;;41.28;17.33;;;;;;;-6.97;55.14;101286.34;5028195;28;20128;-56
2020/12/12 03:12:06;;;;;;;34.92;17.33;;;;;;;-6.88;55.15;101300.34;5029856;28;20444;-52
2020/12/12 03:14:31;;;;;;;38.42;17.73;;;;;;;-6.91;54.93;101301.19;5030477;28;20033;-55
2020/12/12 03:16:57;;;;;;;35.28;17.50;;;;;;;-6.97;55.36;101294.16;5030013;28;20036;-52
2020/12/12 03:19:22;;;;;;;42.00;17.88;;;;;;;-6.96;55.08;101313.25;5029779;28;20064;-58
2020/12/12 03:21:48;;;;;;;34.42;17.48;;;;;;;-7.02;55.34;101285.41;5029139;28;20082;-57
2020/12/12 03:24:14;;;;;;;36.72;16.83;;;;;;;-6.97;54.96;101299.34;5029641;28;20076;-60
2020/12/12 03:26:40;;;;;;;44.15;17.08;;;;;;;-6.97;55.28;101286.34;5029259;28;20041;-55
2020/12/12 03:29:05;;;;;;;38.78;18.52;;;;;;;-7.04;54.96;101281.00;5028930;28;20042;-55
2020/12/12 03:31:31;;;;;;;40.15;18.45;;;;;;;-6.81;54.34;101302.19;5029997;28;20112;-56
2020/12/12 03:33:56;;;;;;;41.97;18.27;;;;;;;-7.01;55.01;101302.78;5029581;28;20524;-57
2020/12/12 03:36:21;;;;;;;45.15;18.40;;;;;;;-7.53;55.06;101232.53;5029751;28;20684;-61
2020/12/12 03:38:47;;;;;;;45.45;18.23;;;;;;;-6.94;54.32;101298.53;5011337;28;20045;-59
2020/12/12 03:41:12;;;;;;;45.17;18.20;;;;;;;-7.02;54.38;101294.91;5029368;28;20120;-59
2020/12/12 03:43:38;;;;;;;43.10;18.13;;;;;;;-7.44;54.49;101244.81;5011182;28;20047;-55
2020/12/12 03:46:03;;;;;;;34.78;14.73;;;;;;;-7.10;54.55;101306.09;5029562;28;20036;-57
2020/12/12 03:48:29;;;;;;;42.28;18.45;;;;;;;-7.27;54.46;101263.28;5031423;28;20126;-54
2020/12/12 03:50:55;;;;;;;42.72;19.30;;;;;;;-7.09;54.18;101307.00;5032568;28;20076;-56
2020/12/12 03:53:20;;;;;;;40.80;18.75;;;;;;;-7.24;54.46;101304.97;5032113;28;20052;-57
2020/12/12 03:55:46;;;;;;;49.58;18.50;;;;;;;-7.19;54.50;101295.56;5032968;28;20037;-57
2020/12/12 03:58:11;;;;;;;37.35;17.25;;;;;;;-7.07;54.53;101300.94;5032428;28;20628;-56
2020/12/12 04:00:37;;;;;;;40.95;17.90;;;;;;;-7.23;54.27;101314.56;5032146;28;20433;-57
2020/12/12 04:03:02;;;;;;;46.47;19.38;;;;;;;-7.41;55.33;101292.59;5032548;28;20045;-56
2020/12/12 04:05:28;;;;;;;42.88;16.75;;;;;;;-7.40;55.13;101307.34;5032372;28;20056;-53
2020/12/12 04:07:53;;;;;;;43.33;18.63;;;;;;;-7.36;54.95;101303.94;5031124;28;20037;-58
2020/12/12 04:10:18;;;;;;;45.75;18.30;;;;;;;-7.55;55.41;101299.25;5031812;28;20139;-54
2020/12/12 04:12:44;;;;;;;44.97;19.00;;;;;;;-7.88;55.31;101233.66;5032026;28;20048;-55
2020/12/12 04:15:10;;;;;;;40.63;18.45;;;;;;;-7.47;55.40;101308.09;5032147;28;20086;-55
2020/12/12 04:17:35;;;;;;;40.95;18.77;;;;;;;-7.82;55.32;101246.81;5032222;28;20037;-58
2020/12/12 04:20:00;;;;;;;35.85;17.20;;;;;;;-7.48;55.35;101311.53;5032622;28;20045;-54
2020/12/12 04:22:26;;;;;;;46.08;19.52;;;;;;;-7.85;55.16;101220.72;5030623;28;20052;-56
2020/12/12 04:24:52;;;;;;;45.40;19.25;;;;;;;-7.49;55.33;101291.56;5032266;28;20033;-55
2020/12/12 04:27:17;;;;;;;41.58;17.48;;;;;;;-7.52;55.76;101300.19;5032849;28;20048;-58
2020/12/12 04:29:43;;;;;;;47.50;17.95;;;;;;;-7.60;55.54;101270.56;5031684;28;20039;-61
2020/12/12 04:32:09;;;;;;;49.67;19.58;;;;;;;-7.48;55.47;101300.25;5031326;28;20148;-56
2020/12/12 04:34:35;;;;;;;47.55;19.35;;;;;;;-7.48;55.66;101303.72;5031417;28;20489;-58
2020/12/12 04:37:00;;;;;;;44.95;19.10;;;;;;;-7.46;55.27;101301.16;5031545;28;20048;-60
2020/12/12 04:39:28;;;;;;;50.80;19.75;;;;;;;-7.41;55.22;101295.19;5031935;28;20041;-55
2020/12/12 04:41:54;;;;;;;45.05;19.98;;;;;;;-7.43;55.37;101293.41;5031397;28;20029;-55
2020/12/12 04:44:20;;;;;;;54.78;21.05;;;;;;;-7.61;55.50;101265.34;5031487;28;20033;-54
2020/12/12 04:46:46;;;;;;;50.63;20.65;;;;;;;-7.78;55.27;101227.81;5031310;28;20520;-57
2020/12/12 04:49:11;;;;;;;50.65;20.58;;;;;;;-7.48;55.37;101301.13;5031572;28;20557;-59
2020/12/12 04:51:38;;;;;;;46.85;20.02;;;;;;;-7.56;56.30;101289.72;5031846;28;20426;-60
2020/12/12 04:54:05;;;;;;;47.42;20.48;;;;;;;-7.64;55.75;101277.47;5030418;28;20111;-59
2020/12/12 04:56:35;;;;;;;50.45;20.10;;;;;;;-7.57;55.77;101303.56;5031158;28;20484;-60
2020/12/12 04:59:02;;;;;;;49.17;21.45;;;;;;;-7.58;56.04;101307.03;5031279;28;20611;-61
2020/12/12 05:01:31;;;;;;;47.33;19.73;;;;;;;-7.58;56.11;101307.03;5013711;28;20634;-60
2020/12/12 05:03:57;;;;;;;48.00;20.90;;;;;;;-7.54;55.96;101298.41;5030308;28;20386;-59
2020/12/12 05:06:28;;;;;;;50.85;21.48;;;;;;;-7.60;56.10;101306.97;5030602;28;20048;-59
2020/12/12 05:08:53;;;;;;;51.25;20.83;;;;;;;-7.54;56.01;101303.63;5031860;28;20038;-54
2020/12/12 05:11:22;;;;;;;49.42;21.55;;;;;;;-8.05;55.81;101211.72;5031867;28;20041;-56
2020/12/12 05:13:48;;;;;;;44.65;20.98;;;;;;;-7.58;56.03;101312.22;5030420;28;20486;-55
2020/12/12 05:16:13;;;;;;;51.92;21.63;;;;;;;-7.70;56.30;101279.94;5030604;28;20033;-59
2020/12/12 05:18:39;;;;;;;48.08;20.98;;;;;;;-7.69;56.11;101292.09;5031358;28;20037;-60
2020/12/12 05:21:05;;;;;;;54.00;20.60;;;;;;;-7.56;56.35;101318.31;5031424;28;20033;-58
2020/12/12 05:23:31;;;;;;;49.22;21.15;;;;;;;-7.61;56.29;101293.97;5030035;28;20048;-59
2020/12/12 05:25:57;;;;;;;49.72;20.65;;;;;;;-7.39;56.35;101322.09;5030403;28;20029;-57
2020/12/12 05:28:23;;;;;;;54.40;21.65;;;;;;;-7.28;56.07;101309.28;5030823;28;20404;-55
2020/12/12 05:30:51;;;;;;;49.45;20.35;;;;;;;-7.25;56.00;101305.84;5030028;28;20116;-50
2020/12/12 05:33:20;;;;;;;57.00;22.50;;;;;;;-7.22;55.80;101309.38;5030591;28;20045;-53
2020/12/12 05:35:46;;;;;;;49.45;20.50;;;;;;;-7.20;56.34;101314.63;5030291;28;20034;-70
2020/12/12 05:38:12;;;;;;;53.45;21.27;;;;;;;-7.23;56.12;101307.63;5029733;28;20056;-54
2020/12/12 05:40:40;;;;;;;47.05;20.73;;;;;;;-7.35;56.29;101290.09;5030088;28;20045;-54
2020/12/12 05:43:08;;;;;;;56.70;23.00;;;;;;;-7.20;56.22;101312.03;5030451;28;20029;-56
2020/12/12 05:45:34;;;;;;;64.15;22.55;;;;;;;-7.23;56.30;101311.97;5030004;28;20033;-59
2020/12/12 05:48:00;;;;;;;49.47;21.80;;;;;;;-7.28;55.87;101293.66;5030576;28;20120;-56
2020/12/12 05:50:26;;;;;;;48.17;21.25;;;;;;;-7.07;55.98;101313.94;5030781;28;20120;-62
2020/12/12 05:52:53;;;;;;;53.85;22.48;;;;;;;-7.23;56.15;101306.78;5030768;28;20117;-56
2020/12/12 05:55:30;;;;;;;52.53;20.42;;;;;;;-7.15;56.50;101292.13;5030358;28;20029;-56
2020/12/12 05:57:57;;;;;;;58.42;22.30;;;;;;;-6.82;56.04;101316.94;5029703;28;20143;-59
2020/12/12 06:00:27;;;;;;;59.38;22.25;;;;;;;-6.59;55.25;101316.41;5030522;28;20239;-64
2020/12/12 06:02:56;;;;;;;51.13;22.45;;;;;;;-6.30;54.44;101315.06;5030666;28;20044;-60
2020/12/12 06:05:33;;;;;;;57.17;20.83;;;;;;;-6.00;53.61;101317.13;5030196;28;20338;-60
2020/12/12 06:08:03;;;;;;;57.83;22.00;;;;;;;-5.88;53.37;101311.19;5029377;28;20041;-58
2020/12/12 06:10:31;;;;;;;58.50;21.38;;;;;;;-5.92;52.97;101318.09;5039194;28;20126;-53
2020/12/12 06:13:06;;;;;;;53.45;21.25;;;;;;;-5.87;53.00;101314.66;5049727;28;20400;-55
2020/12/12 06:15:34;;;;;;;60.17;23.02;;;;;;;-5.92;53.10;101323.31;5049791;28;20044;-55
2020/12/12 06:18:08;;;;;;;57.88;22.15;;;;;;;-5.91;53.36;101309.41;5031672;28;20038;-59
2020/12/12 06:20:37;;;;;;;55.13;22.13;;;;;;;-5.69;52.53;101299.22;5029892;28;20456;-59
2020/12/12 06:23:05;;;;;;;55.03;21.30;;;;;;;-5.54;52.35;101318.50;5028932;28;20354;-60
2020/12/12 06:25:31;;;;;;;51.58;20.88;;;;;;;-5.50;52.04;101302.88;5011855;28;20038;-60
2020/12/12 06:27:57;;;;;;;54.40;22.45;;;;;;;-5.49;51.86;101322.88;5029451;28;20030;-59
2020/12/12 06:30:26;;;;;;;58.10;20.83;;;;;;;-5.47;51.61;101305.50;5034268;28;20428;-61
2020/12/12 06:33:01;;;;;;;53.97;22.67;;;;;;;-5.58;51.65;101316.69;5013987;28;20037;-56
2020/12/12 06:35:31;;;;;;;59.28;21.58;;;;;;;-5.64;51.55;101302.72;5029769;28;20041;-58
2020/12/12 06:37:57;;;;;;;60.25;23.02;;;;;;;-5.73;51.45;101265.22;5030239;28;20067;-56
2020/12/12 06:40:39;;;;;;;64.53;24.23;;;;;;;-5.40;51.92;101303.81;5029196;28;20069;-55
2020/12/12 06:43:32;;;;;;;50.47;20.98;;;;;;;-4.69;50.51;101306.13;5029505;28;20063;-62
2020/12/12 06:45:59;;;;;;;53.00;21.55;;;;;;;-3.43;49.33;101313.56;5029792;28;20498;-59
2020/12/12 06:48:27;;;;;;;50.17;19.92;;;;;;;-2.04;45.75;101312.47;5030195;28;20037;-62
2020/12/12 06:50:53;;;;;;;56.60;22.33;;;;;;;-1.20;43.56;101301.47;5029091;28;20029;-63
2020/12/12 06:53:22;;;;;;;51.63;22.95;;;;;;;-0.53;42.42;101304.34;5008468;28;20461;-62
2020/12/12 06:56:16;;;;;;;50.80;22.17;;;;;;;0.10;41.14;101297.47;5010266;28;20069;-61
2020/12/12 06:58:43;;;;;;;52.15;19.80;;;;;;;0.02;39.87;101275.63;5008896;28;20056;-62
2020/12/12 07:01:27;;;;;;;56.85;22.80;;;;;;;0.03;40.42;101287.03;5009676;28;20041;-63
2020/12/12 07:04:11;;;;;;;47.25;22.50;;;;;;;0.89;38.84;101290.13;5013918;28;20112;-64
2020/12/12 07:06:36;;;;;;;52.05;22.20;;;;;;;1.86;38.24;101290.09;5029585;28;20033;-63
2020/12/12 07:09:05;;;;;;;48.53;22.67;;;;;;;2.72;35.73;101275.84;5029069;28;20044;-65
2020/12/12 07:11:33;;;;;;;55.42;22.10;;;;;;;3.26;34.84;101255.06;5029160;28;20408;-63
2020/12/12 07:14:01;;;;;;;58.83;23.60;;;;;;;3.68;33.67;101226.56;5011288;28;20065;-62
2020/12/12 07:16:27;;;;;;;50.95;22.55;;;;;;;4.49;33.02;101258.56;5029574;28;20048;-64
2020/12/12 07:18:53;;;;;;;53.15;22.40;;;;;;;4.64;32.00;101250.13;5029211;28;20389;-63
2020/12/12 07:21:19;;;;;;;47.63;22.70;;;;;;;4.53;32.06;101265.50;5031293;28;20061;-62
2020/12/12 07:23:46;;;;;;;52.75;23.02;;;;;;;3.81;32.58;101277.41;5032640;28;20037;-62
2020/12/12 07:26:12;;;;;;;47.00;22.35;;;;;;;2.89;33.99;101281.63;5033130;28;20045;-64
2020/12/12 07:28:38;;;;;;;48.10;20.73;;;;;;;2.00;34.83;101286.31;5032601;28;20121;-63
2020/12/12 07:31:04;;;;;;;43.78;20.73;;;;;;;1.14;35.99;101289.72;5032904;28;20038;-62
2020/12/12 07:33:30;;;;;;;41.78;19.80;;;;;;;0.03;37.08;101251.03;5032833;28;20048;-54
2020/12/12 07:35:55;;;;;;;44.47;20.15;;;;;;;-0.69;38.11;101226.50;5033659;28;20041;-62
2020/12/12 07:38:21;;;;;;;42.80;20.08;;;;;;;-0.92;39.20;101280.22;5032817;28;20034;-62
2020/12/12 07:40:47;;;;;;;45.55;20.35;;;;;;;-1.59;39.60;101249.19;5032210;28;20481;-62
2020/12/12 07:43:13;;;;;;;46.50;20.48;;;;;;;-2.11;41.24;101289.78;5033249;28;20040;-62
2020/12/12 07:46:05;;;;;;;49.95;20.33;;;;;;;-2.52;41.64;101287.28;5032267;28;20099;-62
2020/12/12 07:48:30;;;;;;;45.10;20.20;;;;;;;-2.89;43.07;101305.72;5031899;28;20033;-53
2020/12/12 07:50:57;;;;;;;48.38;21.27;;;;;;;-3.11;43.06;101297.88;5030826;28;20033;-63
2020/12/12 07:53:22;;;;;;;45.00;20.88;;;;;;;-3.35;43.45;101302.22;5029960;28;20034;-63
2020/12/12 07:55:57;;;;;;;47.95;19.27;;;;;;;-3.52;44.01;101310.03;5029814;28;20049;-58
2020/12/12 07:58:27;;;;;;;40.17;19.02;;;;;;;-3.66;44.25;101309.16;5030311;28;20089;-62
2020/12/12 08:01:00;;;;;;;42.90;19.98;;;;;;;-3.58;43.94;101306.56;5031838;28;20045;-63
2020/12/12 08:03:27;;;;;;;43.53;19.95;;;;;;;-3.77;43.96;101304.75;5030063;28;20045;-61
2020/12/12 08:06:25;;;;;;;51.15;21.13;;;;;;;-4.00;44.29;101302.09;5029715;28;20573;-64
2020/12/12 08:08:55;;;;;;;45.22;19.55;;;;;;;-4.14;44.68;101306.38;5011631;28;20052;-59
2020/12/12 08:11:21;;;;;;;40.05;18.27;;;;;;;-4.37;44.82;101270.53;5029303;28;20068;-62
2020/12/12 08:13:47;;;;;;;51.08;18.40;;;;;;;-4.12;44.53;101302.03;5030685;28;20034;-63
2020/12/12 08:18:48;;;;;;;45.33;19.75;;;;;;;-4.24;45.28;101300.22;5032625;28;20033;-63
2020/12/12 08:21:18;;;;;;;49.50;19.05;;;;;;;-4.14;45.04;101294.19;5031451;28;20053;-65
2020/12/12 08:23:45;;;;;;;38.70;14.93;;;;;;;-4.07;44.57;101280.25;5032130;28;20042;-64
2020/12/12 08:26:20;;;;;;;40.08;18.95;;;;;;;-4.03;44.37;101300.31;5031863;28;20044;-63
2020/12/12 08:28:46;;;;;;;42.20;19.67;;;;;;;-4.40;44.64;101244.38;5031053;28;20511;-61
2020/12/12 08:31:21;;;;;;;42.80;18.73;;;;;;;-3.99;44.46;101305.56;5032053;28;20045;-61
2020/12/12 08:33:54;;;;;;;34.20;15.27;;;;;;;-3.91;44.61;101288.16;5030394;28;20029;-62
2020/12/12 08:36:23;;;;;;;47.83;19.40;;;;;;;-3.76;44.18;101310.88;5031746;28;20052;-62
2020/12/12 08:38:53;;;;;;;42.40;18.55;;;;;;;-3.70;43.88;101303.03;5032019;28;20037;-62
2020/12/12 08:41:20;;;;;;;47.63;18.90;;;;;;;-3.58;43.91;101304.81;5031918;28;20056;-62
2020/12/12 08:43:45;;;;;;;50.15;19.83;;;;;;;-3.61;43.71;101283.84;5031819;28;20041;-57
2020/12/12 08:46:15;;;;;;;42.30;18.90;;;;;;;-3.70;43.65;101276.88;5031055;28;20052;-62
2020/12/12 08:48:42;;;;;;;43.38;18.52;;;;;;;-3.48;43.67;101306.59;5031781;28;20114;-61
2020/12/12 08:51:09;;;;;;;50.22;18.23;;;;;;;-3.27;43.57;101302.22;5031950;28;20037;-62
2020/12/12 08:53:42;;;;;;;44.92;20.20;;;;;;;-3.39;43.08;101315.31;5031730;28;20041;-59
2020/12/12 08:56:13;;;;;;;46.25;19.88;;;;;;;-3.51;43.72;101297.84;5031664;28;20041;-63
2020/12/12 08:58:59;;;;;;;42.70;19.38;;;;;;;-3.65;44.03;101301.28;5031251;28;20065;-61
2020/12/12 09:01:27;;;;;;;46.13;20.85;;;;;;;-3.69;44.09;101303.94;5030995;28;20045;-63
2020/12/12 09:03:58;;;;;;;47.63;19.10;;;;;;;-3.73;44.35;101289.94;5031155;28;20372;-60
2020/12/12 09:06:26;;;;;;;37.83;18.50;;;;;;;-3.73;43.69;101283.84;5031094;28;20456;-60
2020/12/12 09:09:08;;;;;;;38.80;17.75;;;;;;;-3.57;43.86;101293.47;5026278;28;20095;-57
2020/12/12 09:11:34;;;;;;;43.75;17.67;;;;;;;-3.70;43.71;101262.91;5027314;28;20033;-54
2020/12/12 09:14:00;;;;;;;45.00;20.05;;;;;;;-3.63;43.87;101296.94;5047631;28;20088;-55
2020/12/12 09:16:26;;;;;;;36.92;16.10;;;;;;;-3.70;43.64;101295.19;5029930;28;20029;-56
2020/12/12 09:18:52;;;;;;;51.50;21.98;;;;;;;-3.75;43.95;101297.78;5030260;28;20400;-55
2020/12/12 09:21:18;;;;;;;44.58;22.23;;;;;;;-3.90;44.20;101290.75;5030579;28;20040;-54
2020/12/12 09:23:43;;;;;;;46.17;19.92;;;;;;;-3.98;44.53;101295.13;5023618;28;20038;-59
2020/12/12 09:26:09;;;;;;;48.17;21.88;;;;;;;-4.42;44.00;101193.84;5005380;28;20040;-60
2020/12/12 09:28:35;;;;;;;45.58;20.17;;;;;;;-3.99;43.95;101287.25;5029059;28;20394;-61
2020/12/12 09:31:02;;;;;;;49.63;21.33;;;;;;;-4.15;44.51;101261.06;5028879;28;20116;-61
2020/12/12 09:33:27;;;;;;;51.70;20.05;;;;;;;-4.03;43.92;101284.63;5023476;28;20084;-59
2020/12/12 09:35:53;;;;;;;36.22;16.52;;;;;;;-4.09;44.24;101282.00;5025252;28;20225;-55
2020/12/12 09:38:18;;;;;;;48.45;20.38;;;;;;;-4.22;44.42;101291.53;5021978;28;20500;-58
2020/12/12 09:40:49;;;;;;;45.83;20.42;;;;;;;-4.33;44.63;101270.56;5027623;28;20041;-59
2020/12/12 09:43:15;;;;;;;47.92;20.45;;;;;;;-4.64;44.85;101206.81;5024015;28;20044;-57
2020/12/12 09:45:45;;;;;;;40.65;18.75;;;;;;;-4.40;44.54;101233.94;5025873;28;20084;-60
2020/12/12 09:48:11;;;;;;;41.70;16.52;;;;;;;-4.21;44.48;101267.13;5026726;28;20605;-57
2020/12/12 09:50:37;;;;;;;48.25;19.77;;;;;;;-4.24;44.26;101271.47;5025492;28;20492;-59
2020/12/12 09:53:05;;;;;;;46.53;18.83;;;;;;;-4.31;44.65;101283.66;5028359;28;20033;-58
2020/12/12 09:55:35;;;;;;;48.63;20.25;;;;;;;-4.32;44.67;101274.06;5022040;28;20060;-58
2020/12/12 09:58:00;;;;;;;49.58;19.67;;;;;;;-4.64;44.85;101235.56;5044840;28;20057;-58
2020/12/12 10:00:26;;;;;;;40.00;19.23;;;;;;;-4.45;45.18;101277.50;5026941;28;20132;-59
2020/12/12 10:02:52;;;;;;;39.28;18.30;;;;;;;-4.47;45.20;101267.00;5029771;28;20448;-57
2020/12/12 10:05:18;;;;;;;32.88;12.32;;;;;;;-4.36;44.52;101251.38;5027447;28;20037;-54
2020/12/12 10:07:44;;;;;;;38.17;18.33;;;;;;;-4.22;44.49;101274.97;5027556;28;20037;-59
2020/12/12 10:10:09;;;;;;;41.35;18.20;;;;;;;-4.29;44.47;101273.19;5038513;28;20504;-56
2020/12/12 10:12:35;;;;;;;44.40;18.38;;;;;;;-4.42;44.88;101267.03;5013076;28;20037;-60
2020/12/12 10:15:00;;;;;;;47.35;17.83;;;;;;;-4.34;44.50;101270.56;5030496;28;20200;-61
2020/12/12 10:17:28;;;;;;;36.50;15.52;;;;;;;-4.46;44.30;101247.88;5028633;28;20536;-59
2020/12/12 10:19:54;;;;;;;42.97;17.90;;;;;;;-4.41;44.52;101268.78;5032238;28;20037;-58
2020/12/12 10:22:19;;;;;;;37.85;17.75;;;;;;;-4.43;44.56;101275.75;5047682;28;20503;-61
2020/12/12 10:24:45;;;;;;;36.17;16.80;;;;;;;-4.45;44.31;101251.34;5047890;28;20423;-58
2020/12/12 10:27:10;;;;;;;35.13;15.23;;;;;;;-4.22;44.33;101265.38;5048067;28;20520;-61
2020/12/12 10:29:36;;;;;;;41.80;18.65;;;;;;;-4.12;43.65;101268.03;5029783;28;20039;-54
2020/12/12 10:32:02;;;;;;;34.67;15.32;;;;;;;-4.19;43.40;101257.53;5026137;28;20037;-65
2020/12/12 10:34:27;;;;;;;35.15;17.15;;;;;;;-4.28;44.09;101265.38;5029206;28;20076;-63
2020/12/12 10:36:53;;;;;;;38.13;16.77;;;;;;;-4.25;43.91;101274.94;5030206;28;20109;-62
2020/12/12 10:39:27;;;;;;;35.53;16.67;;;;;;;-4.24;44.23;101267.13;5012301;28;20033;-62
2020/12/12 10:41:53;;;;;;;38.65;17.80;;;;;;;-4.07;43.45;101277.63;5029271;28;20025;-63
2020/12/12 10:44:18;;;;;;;35.67;16.75;;;;;;;-4.27;43.89;101240.97;5029544;28;20033;-60
2020/12/12 10:46:44;;;;;;;41.65;17.02;;;;;;;-4.11;43.72;101251.47;5029798;28;20029;-59
2020/12/12 10:49:09;;;;;;;38.15;17.85;;;;;;;-4.02;43.72;101264.59;5044759;28;20045;-60
2020/12/12 10:51:34;;;;;;;44.95;18.88;;;;;;;-4.00;43.62;101249.75;5029932;28;20045;-62
2020/12/12 10:54:00;;;;;;;44.15;18.45;;;;;;;-4.03;43.21;101260.22;5029378;28;20128;-62
2020/12/12 10:56:25;;;;;;;45.90;21.00;;;;;;;-4.08;43.88;101259.34;5034439;28;20064;-59
2020/12/12 10:58:51;;;;;;;44.00;20.80;;;;;;;-4.07;43.86;101274.16;5035450;28;20072;-61
2020/12/12 11:01:16;;;;;;;47.13;17.90;;;;;;;-4.08;43.63;101264.56;5036054;28;20044;-60
2020/12/12 11:03:42;;;;;;;45.47;18.38;;;;;;;-4.69;43.87;101166.72;5035695;28;20033;-62
2020/12/12 11:06:11;;;;;;;50.30;21.63;;;;;;;-4.25;44.38;101267.09;5036600;28;20477;-53
2020/12/12 11:08:36;;;;;;;51.80;21.80;;;;;;;-4.41;44.63;101274.91;5036747;28;20033;-61
2020/12/12 11:11:02;;;;;;;49.00;23.48;;;;;;;-4.57;45.09;101278.28;5035730;28;20475;-62
2020/12/12 11:13:37;;;;;;;46.10;22.05;;;;;;;-4.51;44.71;101268.75;5036014;28;20087;-61